sensor_id;sensor_type;location;lat;lon;timestamp;P1;P2;P0
70915;PMS5003;58557;50.982;-3.222;2023-04-03T00:00:12;42;40;
70915;PMS5003;58557;50.982;-3.222;2023-04-03T00:02:37;44;41;
70915;PMS5003;58557;50.982;-3.222;2023-04-03T00:05:02;48;43;
70915;PMS5003;58557;50.982;-3.222;2023-04-03T00:07:27;42;39;
70915;PMS5003;58557;50.982;-3.222;2023-04-03T00:09:53;46;42;
70915;PMS5003;58557;50.982;-3.222;2023-04-03T00:12:19;45;39;
70915;PMS5003;58557;50.982;-3.222;2023-04-03T00:14:44;37;32;
70915;PMS5003;58557;50.982;-3.222;2023-04-03T00:17:10;43;38;
70915;PMS5003;58557;50.982;-3.222;2023-04-03T00:19:36;46;39;
70915;PMS5003;58557;50.982;-3.222;2023-04-03T00:22:01;53;45;
70915;PMS5003;58557;50.982;-3.222;2023-04-03T00:24:26;53;49;
70915;PMS5003;58557;50.982;-3.222;2023-04-03T00:26:52;45;39;
70915;PMS5003;58557;50.982;-3.222;2023-04-03T00:29:18;53;45;
70915;PMS5003;58557;50.982;-3.222;2023-04-03T00:31:43;40;35;
70915;PMS5003;58557;50.982;-3.222;2023-04-03T00:34:08;48;46;
70915;PMS5003;58557;50.982;-3.222;2023-04-03T00:36:34;44;39;
70915;PMS5003;58557;50.982;-3.222;2023-04-03T00:38:59;49;42;
70915;PMS5003;58557;50.982;-3.222;2023-04-03T00:41:25;42;36;
70915;PMS5003;58557;50.982;-3.222;2023-04-03T00:43:50;44;44;
70915;PMS5003;58557;50.982;-3.222;2023-04-03T00:46:16;38;34;
70915;PMS5003;58557;50.982;-3.222;2023-04-03T00:48:42;51;42;
70915;PMS5003;58557;50.982;-3.222;2023-04-03T00:51:08;48;44;
70915;PMS5003;58557;50.982;-3.222;2023-04-03T00:53:33;47;44;
70915;PMS5003;58557;50.982;-3.222;2023-04-03T00:55:58;42;39;
70915;PMS5003;58557;50.982;-3.222;2023-04-03T00:58:25;48;44;
70915;PMS5003;58557;50.982;-3.222;2023-04-03T01:00:50;45;39;
70915;PMS5003;58557;50.982;-3.222;2023-04-03T01:03:14;47;40;
70915;PMS5003;58557;50.982;-3.222;2023-04-03T01:05:40;44;38;
70915;PMS5003;58557;50.982;-3.222;2023-04-03T01:08:05;48;39;
70915;PMS5003;58557;50.982;-3.222;2023-04-03T01:10:31;44;34;
70915;PMS5003;58557;50.982;-3.222;2023-04-03T01:12:56;45;38;
70915;PMS5003;58557;50.982;-3.222;2023-04-03T01:15:23;42;38;
70915;PMS5003;58557;50.982;-3.222;2023-04-03T01:17:48;41;35;
70915;PMS5003;58557;50.982;-3.222;2023-04-03T01:20:23;41;38;
70915;PMS5003;58557;50.982;-3.222;2023-04-03T01:22:38;56;44;
70915;PMS5003;58557;50.982;-3.222;2023-04-03T01:25:03;48;43;
70915;PMS5003;58557;50.982;-3.222;2023-04-03T01:27:29;55;47;
70915;PMS5003;58557;50.982;-3.222;2023-04-03T01:29:54;47;38;
70915;PMS5003;58557;50.982;-3.222;2023-04-03T01:32:20;54;44;
70915;PMS5003;58557;50.982;-3.222;2023-04-03T01:34:45;57;44;
70915;PMS5003;58557;50.982;-3.222;2023-04-03T01:37:11;40;40;
70915;PMS5003;58557;50.982;-3.222;2023-04-03T01:39:36;39;36;
70915;PMS5003;58557;50.982;-3.222;2023-04-03T01:42:02;45;38;
70915;PMS5003;58557;50.982;-3.222;2023-04-03T01:44:27;39;34;
70915;PMS5003;58557;50.982;-3.222;2023-04-03T01:46:53;36;30;
70915;PMS5003;58557;50.982;-3.222;2023-04-03T01:49:18;39;35;
70915;PMS5003;58557;50.982;-3.222;2023-04-03T01:51:44;48;43;
70915;PMS5003;58557;50.982;-3.222;2023-04-03T01:54:09;51;44;
70915;PMS5003;58557;50.982;-3.222;2023-04-03T01:56:35;39;34;
70915;PMS5003;58557;50.982;-3.222;2023-04-03T01:59:00;49;38;
70915;PMS5003;58557;50.982;-3.222;2023-04-03T02:01:26;56;49;
70915;PMS5003;58557;50.982;-3.222;2023-04-03T02:03:51;50;43;
70915;PMS5003;58557;50.982;-3.222;2023-04-03T02:06:16;45;41;
70915;PMS5003;58557;50.982;-3.222;2023-04-03T02:08:42;39;37;
70915;PMS5003;58557;50.982;-3.222;2023-04-03T02:11:07;40;37;
70915;PMS5003;58557;50.982;-3.222;2023-04-03T02:13:32;36;35;
70915;PMS5003;58557;50.982;-3.222;2023-04-03T02:15:57;45;42;
70915;PMS5003;58557;50.982;-3.222;2023-04-03T02:18:23;43;33;
70915;PMS5003;58557;50.982;-3.222;2023-04-03T02:20:48;49;44;
70915;PMS5003;58557;50.982;-3.222;2023-04-03T02:23:13;36;33;
70915;PMS5003;58557;50.982;-3.222;2023-04-03T02:25:38;56;42;
70915;PMS5003;58557;50.982;-3.222;2023-04-03T02:28:04;45;41;
70915;PMS5003;58557;50.982;-3.222;2023-04-03T02:30:29;50;40;
70915;PMS5003;58557;50.982;-3.222;2023-04-03T02:32:54;42;35;
70915;PMS5003;58557;50.982;-3.222;2023-04-03T02:35:20;48;39;
70915;PMS5003;58557;50.982;-3.222;2023-04-03T02:37:45;33;31;
70915;PMS5003;58557;50.982;-3.222;2023-04-03T02:40:10;39;29;
70915;PMS5003;58557;50.982;-3.222;2023-04-03T02:42:36;39;36;
70915;PMS5003;58557;50.982;-3.222;2023-04-03T02:45:01;41;35;
70915;PMS5003;58557;50.982;-3.222;2023-04-03T02:47:27;37;32;
70915;PMS5003;58557;50.982;-3.222;2023-04-03T02:49:52;45;37;
70915;PMS5003;58557;50.982;-3.222;2023-04-03T02:52:18;43;37;
70915;PMS5003;58557;50.982;-3.222;2023-04-03T02:54:43;50;37;
70915;PMS5003;58557;50.982;-3.222;2023-04-03T02:57:08;45;41;
70915;PMS5003;58557;50.982;-3.222;2023-04-03T02:59:34;43;38;
70915;PMS5003;58557;50.982;-3.222;2023-04-03T03:01:59;42;41;
70915;PMS5003;58557;50.982;-3.222;2023-04-03T03:04:25;39;38;
70915;PMS5003;58557;50.982;-3.222;2023-04-03T03:06:50;37;32;
70915;PMS5003;58557;50.982;-3.222;2023-04-03T03:09:15;43;37;
70915;PMS5003;58557;50.982;-3.222;2023-04-03T03:11:40;43;38;
70915;PMS5003;58557;50.982;-3.222;2023-04-03T03:14:06;48;42;
70915;PMS5003;58557;50.982;-3.222;2023-04-03T03:16:31;37;34;
70915;PMS5003;58557;50.982;-3.222;2023-04-03T03:18:57;42;38;
70915;PMS5003;58557;50.982;-3.222;2023-04-03T03:21:22;35;33;
70915;PMS5003;58557;50.982;-3.222;2023-04-03T03:23:48;49;46;
70915;PMS5003;58557;50.982;-3.222;2023-04-03T03:26:13;45;37;
70915;PMS5003;58557;50.982;-3.222;2023-04-03T03:28:39;46;44;
70915;PMS5003;58557;50.982;-3.222;2023-04-03T03:31:05;46;41;
70915;PMS5003;58557;50.982;-3.222;2023-04-03T03:33:30;39;33;
70915;PMS5003;58557;50.982;-3.222;2023-04-03T03:35:55;39;32;
70915;PMS5003;58557;50.982;-3.222;2023-04-03T03:38:20;51;45;
70915;PMS5003;58557;50.982;-3.222;2023-04-03T03:40:46;45;43;
70915;PMS5003;58557;50.982;-3.222;2023-04-03T03:43:11;44;40;
70915;PMS5003;58557;50.982;-3.222;2023-04-03T03:45:36;33;28;
70915;PMS5003;58557;50.982;-3.222;2023-04-03T03:48:02;39;35;
70915;PMS5003;58557;50.982;-3.222;2023-04-03T03:50:28;54;50;
70915;PMS5003;58557;50.982;-3.222;2023-04-03T03:52:53;43;35;
70915;PMS5003;58557;50.982;-3.222;2023-04-03T03:55:18;46;39;
70915;PMS5003;58557;50.982;-3.222;2023-04-03T03:57:44;45;35;
70915;PMS5003;58557;50.982;-3.222;2023-04-03T04:00:09;37;32;
70915;PMS5003;58557;50.982;-3.222;2023-04-03T04:02:35;45;44;
70915;PMS5003;58557;50.982;-3.222;2023-04-03T04:05:00;41;38;
70915;PMS5003;58557;50.982;-3.222;2023-04-03T04:07:26;40;34;
70915;PMS5003;58557;50.982;-3.222;2023-04-03T04:09:51;52;45;
70915;PMS5003;58557;50.982;-3.222;2023-04-03T04:12:17;43;41;
70915;PMS5003;58557;50.982;-3.222;2023-04-03T04:14:43;43;36;
70915;PMS5003;58557;50.982;-3.222;2023-04-03T04:17:08;39;35;
70915;PMS5003;58557;50.982;-3.222;2023-04-03T04:19:34;43;39;
70915;PMS5003;58557;50.982;-3.222;2023-04-03T04:21:59;41;37;
70915;PMS5003;58557;50.982;-3.222;2023-04-03T04:24:25;40;35;
70915;PMS5003;58557;50.982;-3.222;2023-04-03T04:26:50;40;39;
70915;PMS5003;58557;50.982;-3.222;2023-04-03T04:29:15;49;43;
70915;PMS5003;58557;50.982;-3.222;2023-04-03T04:31:41;40;34;
70915;PMS5003;58557;50.982;-3.222;2023-04-03T04:34:07;42;36;
70915;PMS5003;58557;50.982;-3.222;2023-04-03T04:36:32;39;36;
70915;PMS5003;58557;50.982;-3.222;2023-04-03T04:38:58;40;39;
70915;PMS5003;58557;50.982;-3.222;2023-04-03T04:41:24;40;37;
70915;PMS5003;58557;50.982;-3.222;2023-04-03T04:43:49;40;35;
70915;PMS5003;58557;50.982;-3.222;2023-04-03T04:46:14;40;36;
70915;PMS5003;58557;50.982;-3.222;2023-04-03T04:48:39;43;42;
70915;PMS5003;58557;50.982;-3.222;2023-04-03T04:51:04;45;38;
70915;PMS5003;58557;50.982;-3.222;2023-04-03T04:53:30;46;42;
70915;PMS5003;58557;50.982;-3.222;2023-04-03T04:55:56;39;35;
70915;PMS5003;58557;50.982;-3.222;2023-04-03T04:58:21;44;38;
70915;PMS5003;58557;50.982;-3.222;2023-04-03T05:00:46;57;45;
70915;PMS5003;58557;50.982;-3.222;2023-04-03T05:03:12;52;43;
70915;PMS5003;58557;50.982;-3.222;2023-04-03T05:05:38;42;38;
70915;PMS5003;58557;50.982;-3.222;2023-04-03T05:08:03;52;44;
70915;PMS5003;58557;50.982;-3.222;2023-04-03T05:10:28;48;46;
70915;PMS5003;58557;50.982;-3.222;2023-04-03T05:12:54;47;43;
70915;PMS5003;58557;50.982;-3.222;2023-04-03T05:15:19;38;37;
70915;PMS5003;58557;50.982;-3.222;2023-04-03T05:17:44;43;38;
70915;PMS5003;58557;50.982;-3.222;2023-04-03T05:20:10;45;39;
70915;PMS5003;58557;50.982;-3.222;2023-04-03T05:22:35;39;34;
70915;PMS5003;58557;50.982;-3.222;2023-04-03T05:25:00;41;38;
70915;PMS5003;58557;50.982;-3.222;2023-04-03T05:27:26;38;31;
70915;PMS5003;58557;50.982;-3.222;2023-04-03T05:29:52;46;41;
70915;PMS5003;58557;50.982;-3.222;2023-04-03T05:32:17;41;37;
70915;PMS5003;58557;50.982;-3.222;2023-04-03T05:34:43;42;37;
70915;PMS5003;58557;50.982;-3.222;2023-04-03T05:37:08;32;28;
70915;PMS5003;58557;50.982;-3.222;2023-04-03T05:39:33;45;43;
70915;PMS5003;58557;50.982;-3.222;2023-04-03T05:41:59;41;37;
70915;PMS5003;58557;50.982;-3.222;2023-04-03T05:44:24;41;39;
70915;PMS5003;58557;50.982;-3.222;2023-04-03T05:46:49;45;34;
70915;PMS5003;58557;50.982;-3.222;2023-04-03T05:49:15;46;44;
70915;PMS5003;58557;50.982;-3.222;2023-04-03T05:51:40;38;34;
70915;PMS5003;58557;50.982;-3.222;2023-04-03T05:54:08;43;37;
70915;PMS5003;58557;50.982;-3.222;2023-04-03T05:56:31;38;37;
70915;PMS5003;58557;50.982;-3.222;2023-04-03T05:58:56;39;33;
70915;PMS5003;58557;50.982;-3.222;2023-04-03T06:01:22;36;32;
70915;PMS5003;58557;50.982;-3.222;2023-04-03T06:03:48;41;33;
70915;PMS5003;58557;50.982;-3.222;2023-04-03T06:06:14;37;37;
70915;PMS5003;58557;50.982;-3.222;2023-04-03T06:08:39;37;34;
70915;PMS5003;58557;50.982;-3.222;2023-04-03T06:11:04;37;33;
70915;PMS5003;58557;50.982;-3.222;2023-04-03T06:13:29;38;35;
70915;PMS5003;58557;50.982;-3.222;2023-04-03T06:15:54;34;30;
70915;PMS5003;58557;50.982;-3.222;2023-04-03T06:18:20;33;30;
70915;PMS5003;58557;50.982;-3.222;2023-04-03T06:20:45;38;31;
70915;PMS5003;58557;50.982;-3.222;2023-04-03T06:23:11;43;42;
70915;PMS5003;58557;50.982;-3.222;2023-04-03T06:25:36;35;33;
70915;PMS5003;58557;50.982;-3.222;2023-04-03T06:28:02;29;26;
70915;PMS5003;58557;50.982;-3.222;2023-04-03T06:30:28;39;33;
70915;PMS5003;58557;50.982;-3.222;2023-04-03T06:32:53;34;30;
70915;PMS5003;58557;50.982;-3.222;2023-04-03T06:35:19;31;29;
70915;PMS5003;58557;50.982;-3.222;2023-04-03T06:37:44;42;35;
70915;PMS5003;58557;50.982;-3.222;2023-04-03T06:40:11;36;34;
70915;PMS5003;58557;50.982;-3.222;2023-04-03T06:42:34;39;38;
70915;PMS5003;58557;50.982;-3.222;2023-04-03T06:45:00;38;28;
70915;PMS5003;58557;50.982;-3.222;2023-04-03T06:47:25;49;42;
70915;PMS5003;58557;50.982;-3.222;2023-04-03T06:49:51;39;36;
70915;PMS5003;58557;50.982;-3.222;2023-04-03T06:52:16;42;39;
70915;PMS5003;58557;50.982;-3.222;2023-04-03T06:54:41;40;39;
70915;PMS5003;58557;50.982;-3.222;2023-04-03T06:57:07;46;40;
70915;PMS5003;58557;50.982;-3.222;2023-04-03T06:59:33;43;36;
70915;PMS5003;58557;50.982;-3.222;2023-04-03T07:01:58;51;40;
70915;PMS5003;58557;50.982;-3.222;2023-04-03T07:04:24;38;34;
70915;PMS5003;58557;50.982;-3.222;2023-04-03T07:06:49;40;34;
70915;PMS5003;58557;50.982;-3.222;2023-04-03T07:09:15;33;29;
70915;PMS5003;58557;50.982;-3.222;2023-04-03T07:11:40;31;28;
70915;PMS5003;58557;50.982;-3.222;2023-04-03T07:14:05;39;34;
70915;PMS5003;58557;50.982;-3.222;2023-04-03T07:16:31;40;37;
70915;PMS5003;58557;50.982;-3.222;2023-04-03T07:18:57;30;29;
70915;PMS5003;58557;50.982;-3.222;2023-04-03T07:21:22;36;34;
70915;PMS5003;58557;50.982;-3.222;2023-04-03T07:23:47;36;28;
70915;PMS5003;58557;50.982;-3.222;2023-04-03T07:26:13;29;29;
70915;PMS5003;58557;50.982;-3.222;2023-04-03T07:28:38;39;35;
70915;PMS5003;58557;50.982;-3.222;2023-04-03T07:31:04;34;30;
70915;PMS5003;58557;50.982;-3.222;2023-04-03T07:33:29;29;22;
70915;PMS5003;58557;50.982;-3.222;2023-04-03T07:35:55;23;20;
70915;PMS5003;58557;50.982;-3.222;2023-04-03T07:38:20;23;22;
70915;PMS5003;58557;50.982;-3.222;2023-04-03T07:40:46;31;22;
70915;PMS5003;58557;50.982;-3.222;2023-04-03T07:43:11;28;23;
70915;PMS5003;58557;50.982;-3.222;2023-04-03T07:45:36;23;21;
70915;PMS5003;58557;50.982;-3.222;2023-04-03T07:48:02;27;24;
70915;PMS5003;58557;50.982;-3.222;2023-04-03T07:50:27;28;19;
70915;PMS5003;58557;50.982;-3.222;2023-04-03T07:52:53;18;18;
70915;PMS5003;58557;50.982;-3.222;2023-04-03T07:55:18;21;21;
70915;PMS5003;58557;50.982;-3.222;2023-04-03T07:57:43;28;22;
70915;PMS5003;58557;50.982;-3.222;2023-04-03T08:00:09;26;24;
70915;PMS5003;58557;50.982;-3.222;2023-04-03T08:02:35;18;17;
70915;PMS5003;58557;50.982;-3.222;2023-04-03T08:05:00;21;21;
70915;PMS5003;58557;50.982;-3.222;2023-04-03T08:07:30;21;20;
70915;PMS5003;58557;50.982;-3.222;2023-04-03T08:09:51;18;15;
70915;PMS5003;58557;50.982;-3.222;2023-04-03T08:12:16;18;15;
70915;PMS5003;58557;50.982;-3.222;2023-04-03T08:14:42;24;21;
70915;PMS5003;58557;50.982;-3.222;2023-04-03T08:17:07;30;20;
70915;PMS5003;58557;50.982;-3.222;2023-04-03T08:19:32;30;24;
70915;PMS5003;58557;50.982;-3.222;2023-04-03T08:21:57;27;25;
70915;PMS5003;58557;50.982;-3.222;2023-04-03T08:24:23;28;26;
70915;PMS5003;58557;50.982;-3.222;2023-04-03T08:26:48;20;16;
70915;PMS5003;58557;50.982;-3.222;2023-04-03T08:29:13;21;19;
70915;PMS5003;58557;50.982;-3.222;2023-04-03T08:31:39;20;15;
70915;PMS5003;58557;50.982;-3.222;2023-04-03T08:34:04;21;18;
70915;PMS5003;58557;50.982;-3.222;2023-04-03T08:36:30;17;16;
70915;PMS5003;58557;50.982;-3.222;2023-04-03T08:38:56;23;20;
70915;PMS5003;58557;50.982;-3.222;2023-04-03T08:41:24;22;18;
70915;PMS5003;58557;50.982;-3.222;2023-04-03T08:43:53;18;18;
70915;PMS5003;58557;50.982;-3.222;2023-04-03T08:46:13;20;17;
70915;PMS5003;58557;50.982;-3.222;2023-04-03T08:48:38;21;20;
70915;PMS5003;58557;50.982;-3.222;2023-04-03T08:51:02;23;21;
70915;PMS5003;58557;50.982;-3.222;2023-04-03T08:53:28;17;15;
70915;PMS5003;58557;50.982;-3.222;2023-04-03T08:55:53;20;17;
70915;PMS5003;58557;50.982;-3.222;2023-04-03T08:58:19;20;15;
70915;PMS5003;58557;50.982;-3.222;2023-04-03T09:00:44;22;22;
70915;PMS5003;58557;50.982;-3.222;2023-04-03T09:03:11;16;14;
70915;PMS5003;58557;50.982;-3.222;2023-04-03T09:05:36;18;15;
70915;PMS5003;58557;50.982;-3.222;2023-04-03T09:08:00;12;11;
70915;PMS5003;58557;50.982;-3.222;2023-04-03T09:10:26;25;20;
70915;PMS5003;58557;50.982;-3.222;2023-04-03T09:12:53;17;17;
70915;PMS5003;58557;50.982;-3.222;2023-04-03T09:15:17;16;13;
70915;PMS5003;58557;50.982;-3.222;2023-04-03T09:17:45;15;15;
70915;PMS5003;58557;50.982;-3.222;2023-04-03T09:20:10;18;16;
70915;PMS5003;58557;50.982;-3.222;2023-04-03T09:22:41;12;12;
70915;PMS5003;58557;50.982;-3.222;2023-04-03T09:24:59;15;15;
70915;PMS5003;58557;50.982;-3.222;2023-04-03T09:27:23;15;15;
70915;PMS5003;58557;50.982;-3.222;2023-04-03T09:29:49;17;13;
70915;PMS5003;58557;50.982;-3.222;2023-04-03T09:32:18;18;13;
70915;PMS5003;58557;50.982;-3.222;2023-04-03T09:34:41;11;11;
70915;PMS5003;58557;50.982;-3.222;2023-04-03T09:37:06;12;12;
70915;PMS5003;58557;50.982;-3.222;2023-04-03T09:39:33;14;12;
70915;PMS5003;58557;50.982;-3.222;2023-04-03T09:41:59;17;15;
70915;PMS5003;58557;50.982;-3.222;2023-04-03T09:44:24;17;14;
70915;PMS5003;58557;50.982;-3.222;2023-04-03T09:46:49;14;13;
70915;PMS5003;58557;50.982;-3.222;2023-04-03T09:49:15;17;16;
70915;PMS5003;58557;50.982;-3.222;2023-04-03T09:51:41;18;14;
70915;PMS5003;58557;50.982;-3.222;2023-04-03T09:56:32;19;14;
70915;PMS5003;58557;50.982;-3.222;2023-04-03T09:59:07;17;13;
70915;PMS5003;58557;50.982;-3.222;2023-04-03T10:01:25;14;14;
70915;PMS5003;58557;50.982;-3.222;2023-04-03T10:03:49;19;19;
70915;PMS5003;58557;50.982;-3.222;2023-04-03T10:08:40;23;19;
70915;PMS5003;58557;50.982;-3.222;2023-04-03T10:11:07;16;14;
70915;PMS5003;58557;50.982;-3.222;2023-04-03T10:13:31;15;15;
70915;PMS5003;58557;50.982;-3.222;2023-04-03T10:16:04;14;14;
70915;PMS5003;58557;50.982;-3.222;2023-04-03T10:18:27;13;12;
70915;PMS5003;58557;50.982;-3.222;2023-04-03T10:20:48;19;16;
70915;PMS5003;58557;50.982;-3.222;2023-04-03T10:23:15;13;12;
70915;PMS5003;58557;50.982;-3.222;2023-04-03T10:25:40;16;13;
70915;PMS5003;58557;50.982;-3.222;2023-04-03T10:28:04;15;14;
70915;PMS5003;58557;50.982;-3.222;2023-04-03T10:30:31;14;13;
70915;PMS5003;58557;50.982;-3.222;2023-04-03T10:32:57;13;10;
70915;PMS5003;58557;50.982;-3.222;2023-04-03T10:35:23;12;12;
70915;PMS5003;58557;50.982;-3.222;2023-04-03T10:37:50;29;28;
70915;PMS5003;58557;50.982;-3.222;2023-04-03T10:40:14;19;19;
70915;PMS5003;58557;50.982;-3.222;2023-04-03T10:42:37;18;14;
70915;PMS5003;58557;50.982;-3.222;2023-04-03T10:45:03;15;12;
70915;PMS5003;58557;50.982;-3.222;2023-04-03T10:47:28;12;12;
70915;PMS5003;58557;50.982;-3.222;2023-04-03T10:49:54;22;19;
70915;PMS5003;58557;50.982;-3.222;2023-04-03T10:52:20;15;14;
70915;PMS5003;58557;50.982;-3.222;2023-04-03T10:54:45;19;19;
70915;PMS5003;58557;50.982;-3.222;2023-04-03T10:57:08;15;13;
70915;PMS5003;58557;50.982;-3.222;2023-04-03T10:59:35;14;14;
70915;PMS5003;58557;50.982;-3.222;2023-04-03T11:01:59;11;11;
70915;PMS5003;58557;50.982;-3.222;2023-04-03T11:04:26;17;16;
70915;PMS5003;58557;50.982;-3.222;2023-04-03T11:06:51;14;14;
70915;PMS5003;58557;50.982;-3.222;2023-04-03T11:09:19;10;10;
70915;PMS5003;58557;50.982;-3.222;2023-04-03T11:11:42;17;16;
70915;PMS5003;58557;50.982;-3.222;2023-04-03T11:14:09;9;9;
70915;PMS5003;58557;50.982;-3.222;2023-04-03T11:16:33;13;13;
70915;PMS5003;58557;50.982;-3.222;2023-04-03T11:18:59;13;12;
70915;PMS5003;58557;50.982;-3.222;2023-04-03T11:21:24;15;13;
70915;PMS5003;58557;50.982;-3.222;2023-04-03T11:23:49;14;13;
70915;PMS5003;58557;50.982;-3.222;2023-04-03T11:26:15;12;12;
70915;PMS5003;58557;50.982;-3.222;2023-04-03T11:28:39;12;12;
70915;PMS5003;58557;50.982;-3.222;2023-04-03T11:31:08;13;12;
70915;PMS5003;58557;50.982;-3.222;2023-04-03T11:33:33;12;12;
70915;PMS5003;58557;50.982;-3.222;2023-04-03T11:35:57;13;12;
70915;PMS5003;58557;50.982;-3.222;2023-04-03T11:38:23;14;11;
70915;PMS5003;58557;50.982;-3.222;2023-04-03T11:40:47;13;13;
70915;PMS5003;58557;50.982;-3.222;2023-04-03T11:43:19;13;13;
70915;PMS5003;58557;50.982;-3.222;2023-04-03T11:45:46;17;17;
70915;PMS5003;58557;50.982;-3.222;2023-04-03T11:48:04;15;14;
70915;PMS5003;58557;50.982;-3.222;2023-04-03T11:52:59;18;16;
70915;PMS5003;58557;50.982;-3.222;2023-04-03T12:02:36;15;10;
70915;PMS5003;58557;50.982;-3.222;2023-04-03T12:07:27;17;17;
70915;PMS5003;58557;50.982;-3.222;2023-04-03T12:09:54;15;12;
70915;PMS5003;58557;50.982;-3.222;2023-04-03T12:12:24;18;17;
70915;PMS5003;58557;50.982;-3.222;2023-04-03T12:14:44;13;13;
70915;PMS5003;58557;50.982;-3.222;2023-04-03T12:17:12;17;14;
70915;PMS5003;58557;50.982;-3.222;2023-04-03T12:19:36;12;12;
70915;PMS5003;58557;50.982;-3.222;2023-04-03T12:22:07;13;12;
70915;PMS5003;58557;50.982;-3.222;2023-04-03T12:24:27;16;14;
70915;PMS5003;58557;50.982;-3.222;2023-04-03T12:29:20;13;12;
70915;PMS5003;58557;50.982;-3.222;2023-04-03T12:31:45;10;9;
70915;PMS5003;58557;50.982;-3.222;2023-04-03T12:34:14;15;15;
70915;PMS5003;58557;50.982;-3.222;2023-04-03T12:36:38;13;12;
70915;PMS5003;58557;50.982;-3.222;2023-04-03T12:39:03;13;11;
70915;PMS5003;58557;50.982;-3.222;2023-04-03T12:41:28;13;13;
70915;PMS5003;58557;50.982;-3.222;2023-04-03T12:46:18;17;15;
70915;PMS5003;58557;50.982;-3.222;2023-04-03T12:48:47;17;15;
70915;PMS5003;58557;50.982;-3.222;2023-04-03T12:51:09;15;12;
70915;PMS5003;58557;50.982;-3.222;2023-04-03T12:53:35;14;11;
70915;PMS5003;58557;50.982;-3.222;2023-04-03T12:58:26;16;16;
70915;PMS5003;58557;50.982;-3.222;2023-04-03T13:03:21;14;14;
70915;PMS5003;58557;50.982;-3.222;2023-04-03T13:05:44;14;13;
70915;PMS5003;58557;50.982;-3.222;2023-04-03T13:08:09;14;14;
70915;PMS5003;58557;50.982;-3.222;2023-04-03T13:10:35;21;20;
70915;PMS5003;58557;50.982;-3.222;2023-04-03T13:13:06;19;16;
70915;PMS5003;58557;50.982;-3.222;2023-04-03T13:15:25;15;14;
70915;PMS5003;58557;50.982;-3.222;2023-04-03T13:17:50;15;13;
70915;PMS5003;58557;50.982;-3.222;2023-04-03T13:20:18;21;20;
70915;PMS5003;58557;50.982;-3.222;2023-04-03T13:22:43;17;14;
70915;PMS5003;58557;50.982;-3.222;2023-04-03T13:25:07;18;16;
70915;PMS5003;58557;50.982;-3.222;2023-04-03T13:27:32;23;21;
70915;PMS5003;58557;50.982;-3.222;2023-04-03T13:29:58;28;23;
70915;PMS5003;58557;50.982;-3.222;2023-04-03T13:32:23;21;20;
70915;PMS5003;58557;50.982;-3.222;2023-04-03T13:34:48;18;17;
70915;PMS5003;58557;50.982;-3.222;2023-04-03T13:37:20;21;21;
70915;PMS5003;58557;50.982;-3.222;2023-04-03T13:39:39;30;27;
70915;PMS5003;58557;50.982;-3.222;2023-04-03T13:44:32;25;22;
70915;PMS5003;58557;50.982;-3.222;2023-04-03T13:46:57;21;21;
70915;PMS5003;58557;50.982;-3.222;2023-04-03T13:49:22;20;19;
70915;PMS5003;58557;50.982;-3.222;2023-04-03T13:51:47;19;16;
70915;PMS5003;58557;50.982;-3.222;2023-04-03T13:54:16;23;22;
70915;PMS5003;58557;50.982;-3.222;2023-04-03T13:56:39;18;16;
70915;PMS5003;58557;50.982;-3.222;2023-04-03T13:59:05;22;19;
70915;PMS5003;58557;50.982;-3.222;2023-04-03T14:01:34;21;21;
70915;PMS5003;58557;50.982;-3.222;2023-04-03T14:03:56;18;18;
70915;PMS5003;58557;50.982;-3.222;2023-04-03T14:06:19;21;20;
70915;PMS5003;58557;50.982;-3.222;2023-04-03T14:08:45;22;19;
70915;PMS5003;58557;50.982;-3.222;2023-04-03T14:11:12;21;21;
70915;PMS5003;58557;50.982;-3.222;2023-04-03T14:13:36;24;22;
70915;PMS5003;58557;50.982;-3.222;2023-04-03T14:16:01;30;26;
70915;PMS5003;58557;50.982;-3.222;2023-04-03T14:18:26;25;21;
70915;PMS5003;58557;50.982;-3.222;2023-04-03T14:20:51;34;31;
70915;PMS5003;58557;50.982;-3.222;2023-04-03T14:23:17;25;24;
70915;PMS5003;58557;50.982;-3.222;2023-04-03T14:25:43;23;23;
70915;PMS5003;58557;50.982;-3.222;2023-04-03T14:28:13;29;25;
70915;PMS5003;58557;50.982;-3.222;2023-04-03T14:30:33;28;27;
70915;PMS5003;58557;50.982;-3.222;2023-04-03T14:32:58;23;23;
70915;PMS5003;58557;50.982;-3.222;2023-04-03T14:35:24;24;22;
70915;PMS5003;58557;50.982;-3.222;2023-04-03T14:37:49;27;27;
70915;PMS5003;58557;50.982;-3.222;2023-04-03T14:40:17;28;27;
70915;PMS5003;58557;50.982;-3.222;2023-04-03T14:42:40;24;24;
70915;PMS5003;58557;50.982;-3.222;2023-04-03T14:45:06;26;26;
70915;PMS5003;58557;50.982;-3.222;2023-04-03T14:47:31;24;22;
70915;PMS5003;58557;50.982;-3.222;2023-04-03T14:49:57;29;29;
70915;PMS5003;58557;50.982;-3.222;2023-04-03T14:52:24;25;25;
70915;PMS5003;58557;50.982;-3.222;2023-04-03T14:54:48;25;25;
70915;PMS5003;58557;50.982;-3.222;2023-04-03T14:57:13;31;27;
70915;PMS5003;58557;50.982;-3.222;2023-04-03T14:59:38;19;18;
70915;PMS5003;58557;50.982;-3.222;2023-04-03T15:02:08;22;20;
70915;PMS5003;58557;50.982;-3.222;2023-04-03T15:04:29;28;26;
70915;PMS5003;58557;50.982;-3.222;2023-04-03T15:06:54;20;20;
70915;PMS5003;58557;50.982;-3.222;2023-04-03T15:09:20;22;21;
70915;PMS5003;58557;50.982;-3.222;2023-04-03T15:11:45;25;21;
70915;PMS5003;58557;50.982;-3.222;2023-04-03T15:14:10;27;25;
70915;PMS5003;58557;50.982;-3.222;2023-04-03T15:16:35;35;31;
70915;PMS5003;58557;50.982;-3.222;2023-04-03T15:19:01;29;29;
70915;PMS5003;58557;50.982;-3.222;2023-04-03T15:21:27;24;24;
70915;PMS5003;58557;50.982;-3.222;2023-04-03T15:23:52;27;27;
70915;PMS5003;58557;50.982;-3.222;2023-04-03T15:26:18;23;22;
70915;PMS5003;58557;50.982;-3.222;2023-04-03T15:28:43;22;22;
70915;PMS5003;58557;50.982;-3.222;2023-04-03T15:31:09;24;22;
70915;PMS5003;58557;50.982;-3.222;2023-04-03T15:33:34;26;26;
70915;PMS5003;58557;50.982;-3.222;2023-04-03T15:35:59;22;22;
70915;PMS5003;58557;50.982;-3.222;2023-04-03T15:38:24;27;27;
70915;PMS5003;58557;50.982;-3.222;2023-04-03T15:40:50;24;21;
70915;PMS5003;58557;50.982;-3.222;2023-04-03T15:43:16;23;23;
70915;PMS5003;58557;50.982;-3.222;2023-04-03T15:45:41;21;19;
70915;PMS5003;58557;50.982;-3.222;2023-04-03T15:48:06;23;21;
70915;PMS5003;58557;50.982;-3.222;2023-04-03T15:50:31;24;23;
70915;PMS5003;58557;50.982;-3.222;2023-04-03T15:52:57;25;25;
70915;PMS5003;58557;50.982;-3.222;2023-04-03T15:55:23;26;25;
70915;PMS5003;58557;50.982;-3.222;2023-04-03T15:57:48;25;22;
70915;PMS5003;58557;50.982;-3.222;2023-04-03T16:00:14;23;23;
70915;PMS5003;58557;50.982;-3.222;2023-04-03T16:02:40;27;26;
70915;PMS5003;58557;50.982;-3.222;2023-04-03T16:05:06;24;24;
70915;PMS5003;58557;50.982;-3.222;2023-04-03T16:07:31;17;16;
70915;PMS5003;58557;50.982;-3.222;2023-04-03T16:09:57;23;23;
70915;PMS5003;58557;50.982;-3.222;2023-04-03T16:12:22;23;23;
70915;PMS5003;58557;50.982;-3.222;2023-04-03T16:14:47;25;24;
70915;PMS5003;58557;50.982;-3.222;2023-04-03T16:17:13;23;22;